createdAt,value
2018-05-08T00:01:53.567Z,97700.70
2018-05-08T00:04:21.225Z,97701.92
2018-05-08T00:06:48.853Z,97694.81
2018-05-08T00:09:15.914Z,97689.73
2018-05-08T00:11:43.554Z,97689.50
2018-05-08T00:14:11.221Z,97692.47
2018-05-08T00:16:38.854Z,97692.16
2018-05-08T00:19:06.381Z,97691.20
2018-05-08T00:21:34.146Z,97690.23
2018-05-08T00:24:01.749Z,97684.28
2018-05-08T00:26:29.446Z,97685.27
2018-05-08T00:28:57.100Z,97679.47
2018-05-08T00:31:24.746Z,97681.18
2018-05-08T00:33:52.570Z,97681.81
2018-05-08T00:36:20.114Z,97686.94
2018-05-08T00:38:47.645Z,97688.11
2018-05-08T00:41:15.344Z,97688.78
2018-05-08T00:43:43.779Z,97686.48
2018-05-08T00:46:11.371Z,97685.63
2018-05-08T00:48:39.008Z,97689.23
2018-05-08T00:51:06.640Z,97692.11
2018-05-08T00:53:33.729Z,97688.23
2018-05-08T00:56:01.357Z,97690.62
2018-05-08T00:58:28.872Z,97684.27
2018-05-08T01:00:56.566Z,97685.67
2018-05-08T01:03:24.091Z,97679.91
2018-05-08T01:05:51.749Z,97680.17
2018-05-08T01:08:18.977Z,97679.93
2018-05-08T01:10:46.497Z,97675.12
2018-05-08T01:13:14.277Z,97672.92
2018-05-08T01:15:42.016Z,97670.08
2018-05-08T01:18:09.209Z,97677.05
2018-05-08T01:20:36.401Z,97673.77
2018-05-08T01:23:04.090Z,97669.51
2018-05-08T01:25:31.650Z,97671.19
2018-05-08T01:27:59.160Z,97663.34
2018-05-08T01:30:26.874Z,97664.10
2018-05-08T01:32:54.399Z,97662.66
2018-05-08T01:35:21.925Z,97662.70
2018-05-08T01:37:49.471Z,97669.86
2018-05-08T01:40:17.174Z,97667.93
2018-05-08T01:42:44.831Z,97665.81
2018-05-08T01:45:12.431Z,97674.63
2018-05-08T01:47:39.960Z,97672.70
2018-05-08T01:50:07.719Z,97669.80
2018-05-08T01:52:35.920Z,97662.67
2018-05-08T01:55:03.505Z,97653.59
2018-05-08T01:57:31.049Z,97657.75
2018-05-08T01:59:58.831Z,97660.95
2018-05-08T02:02:26.501Z,97661.49
2018-05-08T02:04:54.306Z,97660.09
2018-05-08T02:07:22.592Z,97659.78
2018-05-08T02:09:50.340Z,97645.91
2018-05-08T02:12:17.995Z,97647.73
2018-05-08T02:14:46.095Z,97644.94
2018-05-08T02:17:14.084Z,97647.16
2018-05-08T02:19:41.618Z,97644.73
2018-05-08T02:22:09.899Z,97646.85
2018-05-08T02:24:37.595Z,97642.05
2018-05-08T02:27:05.251Z,97640.16
2018-05-08T02:29:32.786Z,97645.91
2018-05-08T02:32:00.342Z,97644.35
2018-05-08T02:34:27.866Z,97641.48
2018-05-08T02:36:55.507Z,97649.85
2018-05-08T02:39:23.158Z,97645.25
2018-05-08T02:41:50.670Z,97646.22
2018-05-08T02:44:18.325Z,97639.63
2018-05-08T02:46:46.093Z,97638.09
2018-05-08T02:49:13.833Z,97633.50
2018-05-08T02:51:41.365Z,97628.80
2018-05-08T02:54:08.921Z,97627.11
2018-05-08T02:56:36.558Z,97627.31
2018-05-08T02:59:04.093Z,97637.14
2018-05-08T03:01:31.611Z,97634.66
2018-05-08T03:03:59.293Z,97635.30
2018-05-08T03:06:26.946Z,97627.20
2018-05-08T03:08:54.462Z,97626.10
2018-05-08T03:11:22.008Z,97623.63
2018-05-08T03:13:49.593Z,97621.30
2018-05-08T03:16:17.277Z,97627.02
2018-05-08T03:18:45.741Z,97623.42
2018-05-08T03:21:13.243Z,97621.91
2018-05-08T03:23:40.758Z,97624.56
2018-05-08T03:26:08.476Z,97627.77
2018-05-08T03:28:36.146Z,97622.30
2018-05-08T03:31:03.817Z,97619.00
2018-05-08T03:33:31.571Z,97620.39
2018-05-08T03:35:59.254Z,97629.65
2018-05-08T03:38:26.784Z,97631.26
2018-05-08T03:40:54.320Z,97622.50
2018-05-08T03:43:21.835Z,97621.31
2018-05-08T03:45:49.407Z,97623.36
2018-05-08T03:48:17.002Z,97627.89
2018-05-08T03:50:44.707Z,97630.22
2018-05-08T03:53:12.216Z,97630.57
2018-05-08T03:55:39.783Z,97629.68
2018-05-08T03:58:07.383Z,97627.83
2018-05-08T04:00:46.926Z,97631.59
2018-05-08T04:03:26.445Z,97633.98
2018-05-08T04:06:00.247Z,97628.72
2018-05-08T04:08:33.857Z,97631.57
2018-05-08T04:11:01.628Z,97635.25
2018-05-08T04:13:29.175Z,97634.61
2018-05-08T04:15:56.818Z,97633.02
2018-05-08T04:18:25.428Z,97629.73
2018-05-08T04:20:52.949Z,97636.11
2018-05-08T04:23:20.526Z,97627.77
2018-05-08T04:25:48.050Z,97634.83
2018-05-08T04:28:15.603Z,97636.73
2018-05-08T04:30:43.851Z,97632.90
2018-05-08T04:33:11.371Z,97633.34
2018-05-08T04:35:38.907Z,97631.63
2018-05-08T04:38:07.353Z,97626.02
2018-05-08T04:40:35.026Z,97618.55
2018-05-08T04:43:02.562Z,97625.05
2018-05-08T04:45:30.207Z,97627.62
2018-05-08T04:47:57.767Z,97623.95
2018-05-08T04:50:25.297Z,97626.50
2018-05-08T04:52:52.825Z,97625.81
2018-05-08T04:55:20.393Z,97622.39
2018-05-08T04:57:48.046Z,97629.35
2018-05-08T05:00:15.945Z,97621.94
2018-05-08T05:02:43.512Z,97633.13
2018-05-08T05:05:11.373Z,97636.20
2018-05-08T05:07:38.907Z,97630.36
2018-05-08T05:10:06.506Z,97631.66
2018-05-08T05:12:34.033Z,97628.99
2018-05-08T05:15:01.747Z,97631.13
2018-05-08T05:17:29.461Z,97631.50
2018-05-08T05:19:57.162Z,97627.48
2018-05-08T05:22:24.681Z,97629.83
2018-05-08T05:24:52.657Z,97628.72
2018-05-08T05:27:20.565Z,97628.52
2018-05-08T05:29:48.207Z,97624.78
2018-05-08T05:32:15.788Z,97621.97
2018-05-08T05:34:43.406Z,97620.75
2018-05-08T05:37:11.002Z,97618.77
2018-05-08T05:39:38.547Z,97611.08
2018-05-08T05:42:06.277Z,97604.30
2018-05-08T05:44:34.079Z,97603.38
2018-05-08T05:47:02.613Z,97600.20
2018-05-08T05:49:30.184Z,97598.13
2018-05-08T05:51:57.720Z,97599.89
2018-05-08T05:54:25.367Z,97591.25
2018-05-08T05:56:52.962Z,97593.47
2018-05-08T05:59:20.503Z,97592.50
2018-05-08T06:01:48.319Z,97580.78
2018-05-08T06:04:15.897Z,97592.87
2018-05-08T06:06:43.544Z,97583.81
2018-05-08T06:09:11.107Z,97587.22
2018-05-08T06:11:38.654Z,97583.72
2018-05-08T06:14:06.343Z,97587.34
2018-05-08T06:16:33.866Z,97589.38
2018-05-08T06:19:01.462Z,97578.70
2018-05-08T06:21:29.033Z,97588.56
2018-05-08T06:23:56.136Z,97587.54
2018-05-08T06:26:23.444Z,97584.30
2018-05-08T06:28:51.326Z,97578.63
2018-05-08T06:31:18.487Z,97585.09
2018-05-08T06:33:45.713Z,97581.84
2018-05-08T06:36:12.952Z,97584.58
2018-05-08T06:38:40.512Z,97577.48
2018-05-08T06:41:08.117Z,97578.23
2018-05-08T06:43:35.858Z,97577.91
2018-05-08T06:46:03.414Z,97573.59
2018-05-08T06:48:30.989Z,97571.73
2018-05-08T06:50:58.635Z,97575.13
2018-05-08T06:53:26.146Z,97574.68
2018-05-08T06:55:53.658Z,97578.81
2018-05-08T06:58:21.334Z,97580.86
2018-05-08T07:00:48.919Z,97573.98
2018-05-08T07:03:16.818Z,97566.95
2018-05-08T07:05:44.463Z,97567.69
2018-05-08T07:08:11.973Z,97571.39
2018-05-08T07:10:39.594Z,97563.20
2018-05-08T07:13:07.163Z,97567.85
2018-05-08T07:15:34.773Z,97563.83
2018-05-08T07:18:03.368Z,97571.03
2018-05-08T07:20:30.907Z,97557.22
2018-05-08T07:22:58.579Z,97557.08
2018-05-08T07:25:26.138Z,97558.23
2018-05-08T07:27:53.668Z,97553.89
2018-05-08T07:30:21.342Z,97558.30
2018-05-08T07:32:48.943Z,97560.44
2018-05-08T07:35:16.632Z,97561.19
2018-05-08T07:37:44.259Z,97553.22
2018-05-08T07:40:11.917Z,97558.99
2018-05-08T07:42:39.437Z,97553.66
2018-05-08T07:45:06.949Z,97554.15
2018-05-08T07:47:34.484Z,97555.91
2018-05-08T07:50:02.037Z,97558.56
2018-05-08T07:52:29.722Z,97555.13
2018-05-08T07:54:57.243Z,97549.08
2018-05-08T07:57:24.913Z,97553.66
2018-05-08T07:59:52.437Z,97547.59
2018-05-08T08:02:19.952Z,97543.77
2018-05-08T08:04:47.728Z,97536.55
2018-05-08T08:07:15.608Z,97539.25
2018-05-08T08:09:43.265Z,97536.23
2018-05-08T08:12:10.885Z,97537.53
2018-05-08T08:14:38.705Z,97547.91
2018-05-08T08:17:06.224Z,97540.36
2018-05-08T08:19:33.752Z,97534.83
2018-05-08T08:22:01.313Z,97534.22
2018-05-08T08:24:28.828Z,97532.84
2018-05-08T08:26:56.360Z,97531.91
2018-05-08T08:29:24.154Z,97531.37
2018-05-08T08:31:51.685Z,97534.98
2018-05-08T08:34:19.218Z,97531.41
2018-05-08T08:36:46.815Z,97526.65
2018-05-08T08:39:14.349Z,97526.19
2018-05-08T08:41:41.919Z,97517.49
2018-05-08T08:44:09.459Z,97525.19
2018-05-08T08:46:37.053Z,97517.25
2018-05-08T08:49:05.036Z,97516.24
2018-05-08T08:51:32.896Z,97515.22
2018-05-08T08:54:00.436Z,97516.81
2018-05-08T08:56:28.386Z,97512.88
2018-05-08T08:58:56.111Z,97518.61
2018-05-08T09:01:23.639Z,97510.99
2018-05-08T09:03:51.274Z,97520.84
2018-05-08T09:06:19.959Z,97519.99
2018-05-08T09:08:47.565Z,97510.71
2018-05-08T09:11:15.434Z,97512.28
2018-05-08T09:13:42.992Z,97507.00
2018-05-08T09:16:10.655Z,97503.43
2018-05-08T09:18:39.131Z,97498.98
2018-05-08T09:21:06.896Z,97495.52
2018-05-08T09:23:34.419Z,97492.91
2018-05-08T09:26:02.028Z,97490.39
2018-05-08T09:28:29.551Z,97489.14
2018-05-08T09:30:57.291Z,97486.50
2018-05-08T09:33:24.826Z,97488.77
2018-05-08T09:35:52.442Z,97479.78
2018-05-08T09:38:20.094Z,97481.16
2018-05-08T09:40:47.846Z,97481.38
2018-05-08T09:43:15.381Z,97464.56
2018-05-08T09:45:43.021Z,97460.28
2018-05-08T09:48:10.710Z,97467.86
2018-05-08T09:50:38.331Z,97463.17
2018-05-08T09:53:05.940Z,97458.70
2018-05-08T09:55:33.466Z,97456.34
2018-05-08T09:58:01.050Z,97464.67
2018-05-08T10:00:28.814Z,97462.08
2018-05-08T10:02:56.490Z,97460.22
2018-05-08T10:05:24.116Z,97458.25
2018-05-08T10:07:51.655Z,97451.02
2018-05-08T10:10:19.679Z,97444.02
2018-05-08T10:12:47.198Z,97451.41
2018-05-08T10:15:15.320Z,97437.53
2018-05-08T10:17:42.846Z,97429.09
2018-05-08T10:20:10.470Z,97435.44
2018-05-08T10:22:37.981Z,97433.85
2018-05-08T10:25:05.520Z,97428.30
2018-05-08T10:27:33.101Z,97426.66
2018-05-08T10:30:00.611Z,97429.47
2018-05-08T10:32:29.127Z,97423.31
2018-05-08T10:34:56.650Z,97418.33
2018-05-08T10:37:24.195Z,97418.35
2018-05-08T10:39:51.739Z,97422.30
2018-05-08T10:42:19.419Z,97403.87
2018-05-08T10:44:47.064Z,97407.28
2018-05-08T10:47:14.578Z,97411.88
2018-05-08T10:49:42.192Z,97401.75
2018-05-08T10:52:09.735Z,97394.02
2018-05-08T10:54:37.326Z,97386.58
2018-05-08T10:57:04.989Z,97396.22
2018-05-08T10:59:32.614Z,97383.93
2018-05-08T11:02:00.131Z,97390.61
2018-05-08T11:04:27.651Z,97377.66
2018-05-08T11:06:55.891Z,97380.83
2018-05-08T11:09:23.462Z,97375.41
2018-05-08T11:11:51.008Z,97371.27
2018-05-08T11:14:18.799Z,97366.91
2018-05-08T11:16:46.555Z,97364.70
2018-05-08T11:19:14.113Z,97359.44
2018-05-08T11:21:41.629Z,97357.84
2018-05-08T11:24:09.411Z,97347.08
2018-05-08T11:26:36.999Z,97343.03
2018-05-08T11:29:04.527Z,97346.75
2018-05-08T11:31:32.085Z,97339.98
2018-05-08T11:33:59.824Z,97343.61
2018-05-08T11:36:27.428Z,97347.43
2018-05-08T11:38:54.996Z,97342.97
2018-05-08T11:41:22.591Z,97341.05
2018-05-08T11:43:50.237Z,97337.64
2018-05-08T11:46:17.960Z,97326.23
2018-05-08T11:48:45.991Z,97330.45
2018-05-08T11:51:13.689Z,97313.59
2018-05-08T11:53:41.937Z,97313.27
2018-05-08T11:56:09.536Z,97316.08
2018-05-08T11:58:37.105Z,97311.80
2018-05-08T12:01:05.044Z,97311.63
2018-05-08T12:03:32.561Z,97310.36
2018-05-08T12:06:00.272Z,97305.03
2018-05-08T12:08:27.899Z,97301.52
2018-05-08T12:10:55.481Z,97299.88
2018-05-08T12:13:23.163Z,97299.50
2018-05-08T12:15:50.725Z,97302.48
2018-05-08T12:18:18.338Z,97304.27
2018-05-08T12:20:46.052Z,97299.88
2018-05-08T12:23:13.762Z,97292.55
2018-05-08T12:25:41.417Z,97294.34
2018-05-08T12:28:09.300Z,97295.03
2018-05-08T12:30:37.089Z,97285.30
2018-05-08T12:33:04.696Z,97287.19
2018-05-08T12:35:32.368Z,97291.33
2018-05-08T12:37:59.983Z,97285.86
2018-05-08T12:40:27.658Z,97288.33
2018-05-08T12:42:55.192Z,97271.77
2018-05-08T12:45:23.800Z,97283.44
2018-05-08T12:47:51.609Z,97271.66
2018-05-08T12:50:19.165Z,97277.32
2018-05-08T12:52:46.737Z,97274.97
2018-05-08T12:55:14.282Z,97269.37
2018-05-08T12:57:41.822Z,97264.39
2018-05-08T13:00:09.410Z,97268.78
2018-05-08T13:02:36.928Z,97262.30
2018-05-08T13:05:04.475Z,97255.13
2018-05-08T13:07:32.019Z,97247.36
2018-05-08T13:09:59.562Z,97240.00
2018-05-08T13:12:27.078Z,97247.05
2018-05-08T13:14:54.711Z,97243.59
2018-05-08T13:17:22.222Z,97241.50
2018-05-08T13:19:49.777Z,97244.73
2018-05-08T13:22:17.591Z,97232.58
2018-05-08T13:24:45.321Z,97228.09
2018-05-08T13:27:12.872Z,97228.58
2018-05-08T13:29:40.492Z,97224.73
2018-05-08T13:32:08.083Z,97230.18
2018-05-08T13:34:35.612Z,97225.64
2018-05-08T13:37:03.217Z,97224.06
2018-05-08T13:39:30.783Z,97225.53
2018-05-08T13:41:58.586Z,97209.65
2018-05-08T13:44:26.037Z,97205.98
2018-05-08T13:46:53.608Z,97201.91
2018-05-08T13:49:21.216Z,97202.27
2018-05-08T13:51:48.741Z,97193.58
2018-05-08T13:54:16.272Z,97204.94
2018-05-08T13:56:43.786Z,97199.67
2018-05-08T13:59:11.387Z,97196.44
2018-05-08T14:01:38.950Z,97199.55
2018-05-08T14:04:06.578Z,97196.27
2018-05-08T14:06:34.900Z,97191.34
2018-05-08T14:09:02.561Z,97189.80
2018-05-08T14:11:30.286Z,97190.45
2018-05-08T14:13:57.907Z,97190.73
2018-05-08T14:16:25.640Z,97182.01
2018-05-08T14:18:53.264Z,97184.75
2018-05-08T14:21:20.823Z,97179.23
2018-05-08T14:23:48.521Z,97175.67
2018-05-08T14:26:16.241Z,97171.25
2018-05-08T14:28:43.772Z,97174.53
2018-05-08T14:31:11.312Z,97175.16
2018-05-08T14:33:38.883Z,97167.98
2018-05-08T14:36:05.942Z,97162.23
2018-05-08T14:38:33.143Z,97168.05
2018-05-08T14:41:00.183Z,97168.12
2018-05-08T14:43:27.828Z,97156.74
2018-05-08T14:45:55.396Z,97154.50
2018-05-08T14:48:23.250Z,97148.73
2018-05-08T14:50:50.768Z,97155.66
2018-05-08T14:53:18.372Z,97150.27
2018-05-08T14:55:46.136Z,97144.68
2018-05-08T14:58:13.667Z,97140.38
2018-05-08T15:00:41.242Z,97137.77
2018-05-08T15:03:08.763Z,97134.30
2018-05-08T15:05:36.312Z,97140.16
2018-05-08T15:08:03.858Z,97129.73
2018-05-08T15:10:31.409Z,97129.42
2018-05-08T15:12:59.058Z,97133.30
2018-05-08T15:15:26.788Z,97135.98
2018-05-08T15:17:54.423Z,97136.32
2018-05-08T15:20:22.099Z,97141.55
2018-05-08T15:22:49.653Z,97139.53
2018-05-08T15:25:17.183Z,97137.16
2018-05-08T15:27:44.944Z,97133.30
2018-05-08T15:30:12.556Z,97128.47
2018-05-08T15:32:40.246Z,97133.53
2018-05-08T15:35:08.095Z,97123.13
2018-05-08T15:37:35.681Z,97123.95
2018-05-08T15:40:03.229Z,97121.82
2018-05-08T15:42:30.777Z,97131.44
2018-05-08T15:44:58.389Z,97130.16
2018-05-08T15:47:25.927Z,97116.52
2018-05-08T15:49:53.482Z,97117.17
2018-05-08T15:52:21.053Z,97118.39
2018-05-08T15:54:48.799Z,97118.03
2018-05-08T15:57:16.334Z,97112.63
2018-05-08T15:59:43.877Z,97103.39
2018-05-08T16:02:11.496Z,97102.45
2018-05-08T16:04:39.013Z,97107.38
2018-05-08T16:07:07.658Z,97110.42
2018-05-08T16:09:35.359Z,97101.59
2018-05-08T16:12:03.021Z,97110.20
2018-05-08T16:14:30.606Z,97101.48
2018-05-08T16:16:58.323Z,97100.22
2018-05-08T16:19:25.858Z,97095.19
2018-05-08T16:21:53.693Z,97095.61
2018-05-08T16:24:21.378Z,97090.86
2018-05-08T16:26:49.076Z,97098.02
2018-05-08T16:29:16.978Z,97094.33
2018-05-08T16:31:44.155Z,97105.13
2018-05-08T16:34:11.699Z,97098.05
2018-05-08T16:36:39.217Z,97097.93
2018-05-08T16:39:06.759Z,97096.91
2018-05-08T16:41:34.531Z,97097.02
2018-05-08T16:44:01.677Z,97092.57
2018-05-08T16:46:28.871Z,97092.02
2018-05-08T16:48:56.389Z,97096.82
2018-05-08T16:51:23.917Z,97094.91
2018-05-08T16:53:51.589Z,97092.57
2018-05-08T16:56:19.093Z,97087.66
2018-05-08T16:58:46.240Z,97086.41
2018-05-08T17:01:13.342Z,97090.81
2018-05-08T17:03:40.432Z,97083.99
2018-05-08T17:06:08.024Z,97085.97
2018-05-08T17:08:35.547Z,97083.86
2018-05-08T17:11:02.693Z,97082.50
2018-05-08T17:13:30.247Z,97079.23
2018-05-08T17:15:57.363Z,97086.00
2018-05-08T17:18:24.919Z,97087.45
2018-05-08T17:20:52.025Z,97086.91
2018-05-08T17:23:19.140Z,97089.39
2018-05-08T17:25:46.354Z,97087.05
2018-05-08T17:28:13.448Z,97084.34
2018-05-08T17:30:41.207Z,97087.50
2018-05-08T17:33:08.299Z,97090.17
2018-05-08T17:35:35.483Z,97089.85
2018-05-08T17:38:02.724Z,97086.94
2018-05-08T17:40:30.467Z,97086.02
2018-05-08T17:42:58.020Z,97086.62
2018-05-08T17:45:25.545Z,97078.73
2018-05-08T17:47:53.090Z,97087.25
2018-05-08T17:50:20.643Z,97089.25
2018-05-08T17:52:48.262Z,97086.55
2018-05-08T17:55:16.600Z,97086.02
2018-05-08T17:57:44.159Z,97089.27
2018-05-08T18:00:11.958Z,97092.92
2018-05-08T18:02:39.732Z,97099.30
2018-05-08T18:05:07.273Z,97091.48
2018-05-08T18:07:34.962Z,97093.92
2018-05-08T18:10:02.059Z,97094.17
2018-05-08T18:12:29.143Z,97090.66
2018-05-08T18:14:56.695Z,97096.63
2018-05-08T18:17:23.850Z,97101.58
2018-05-08T18:19:51.471Z,97097.64
2018-05-08T18:22:19.070Z,97098.06
2018-05-08T18:24:46.664Z,97105.54
2018-05-08T18:27:13.920Z,97101.02
2018-05-08T18:29:41.013Z,97107.10
2018-05-08T18:32:08.259Z,97105.12
2018-05-08T18:34:35.445Z,97108.61
2018-05-08T18:37:02.589Z,97111.13
2018-05-08T18:39:29.688Z,97101.27
2018-05-08T18:41:56.793Z,97102.19
2018-05-08T18:44:23.868Z,97111.30
2018-05-08T18:46:50.954Z,97109.09
2018-05-08T18:49:18.070Z,97108.47
2018-05-08T18:51:45.228Z,97109.39
2018-05-08T18:54:12.322Z,97116.29
2018-05-08T18:56:39.509Z,97114.56
2018-05-08T18:59:06.728Z,97116.39
2018-05-08T19:01:33.808Z,97110.38
2018-05-08T19:04:00.892Z,97116.80
2018-05-08T19:06:28.039Z,97119.03
2018-05-08T19:08:55.550Z,97120.84
2018-05-08T19:11:28.458Z,97119.77
2018-05-08T19:13:55.668Z,97124.48
2018-05-08T19:16:23.140Z,97119.08
2018-05-08T19:18:56.133Z,97120.64
2018-05-08T19:21:23.227Z,97125.70
2018-05-08T19:23:56.027Z,97128.91
2018-05-08T19:26:23.683Z,97124.66
2018-05-08T19:28:56.874Z,97132.53
2018-05-08T19:31:24.400Z,97134.55
2018-05-08T19:33:52.056Z,97144.34
2018-05-08T19:36:25.320Z,97149.65
2018-05-08T19:38:53.034Z,97143.03
2018-05-08T19:41:20.807Z,97141.13
2018-05-08T19:43:47.925Z,97139.39
2018-05-08T19:46:15.102Z,97142.59
2018-05-08T19:48:42.217Z,97143.39
2018-05-08T19:51:09.788Z,97144.89
2018-05-08T19:53:36.982Z,97149.97
2018-05-08T19:56:04.161Z,97148.05
2018-05-08T19:58:31.303Z,97150.63
2018-05-08T20:00:58.401Z,97153.38
2018-05-08T20:03:25.495Z,97153.38
2018-05-08T20:05:52.744Z,97153.29
2018-05-08T20:08:19.855Z,97156.12
2018-05-08T20:10:46.929Z,97150.53
2018-05-08T20:13:14.178Z,97153.01
2018-05-08T20:15:41.379Z,97153.33
2018-05-08T20:18:08.477Z,97156.95
2018-05-08T20:20:35.693Z,97151.58
2018-05-08T20:23:02.805Z,97154.57
2018-05-08T20:25:29.929Z,97153.97
2018-05-08T20:27:57.023Z,97159.52
2018-05-08T20:30:24.221Z,97156.13
2018-05-08T20:32:51.295Z,97151.48
2018-05-08T20:35:18.390Z,97152.91
2018-05-08T20:37:45.494Z,97156.94
2018-05-08T20:40:12.686Z,97156.63
2018-05-08T20:42:39.854Z,97156.98
2018-05-08T20:45:06.919Z,97156.08
2018-05-08T20:47:34.172Z,97157.84
2018-05-08T20:50:01.260Z,97158.99
2018-05-08T20:52:28.460Z,97158.66
2018-05-08T20:54:55.650Z,97160.23
2018-05-08T20:57:22.763Z,97153.23
2018-05-08T20:59:49.857Z,97156.32
2018-05-08T21:02:16.947Z,97150.17
2018-05-08T21:04:44.105Z,97146.53
2018-05-08T21:07:11.322Z,97143.16
2018-05-08T21:09:38.398Z,97149.26
2018-05-08T21:12:05.512Z,97146.55
2018-05-08T21:14:32.698Z,97150.59
2018-05-08T21:16:59.832Z,97147.77
2018-05-08T21:19:26.929Z,97154.73
2018-05-08T21:21:54.086Z,97144.84
2018-05-08T21:24:21.630Z,97147.47
2018-05-08T21:26:49.303Z,97149.09
2018-05-08T21:32:19.985Z,97149.91
2018-05-08T21:34:47.633Z,97149.61
2018-05-08T21:37:14.936Z,97140.01
2018-05-08T21:39:42.041Z,97147.39
2018-05-08T21:42:09.185Z,97148.59
2018-05-08T21:44:36.253Z,97152.58
2018-05-08T21:47:03.391Z,97150.78
2018-05-08T21:49:30.655Z,97153.00
2018-05-08T21:51:57.980Z,97150.95
2018-05-08T21:54:25.054Z,97151.84
2018-05-08T21:56:52.126Z,97154.99
2018-05-08T21:59:19.259Z,97157.00
2018-05-08T22:01:46.452Z,97157.45
2018-05-08T22:04:13.545Z,97154.02
2018-05-08T22:06:40.764Z,97152.58
2018-05-08T22:09:07.999Z,97160.31
2018-05-08T22:11:35.187Z,97157.12
2018-05-08T22:14:02.348Z,97161.30
2018-05-08T22:16:29.435Z,97165.81
2018-05-08T22:18:56.533Z,97168.52
2018-05-08T22:21:23.715Z,97169.41
2018-05-08T22:23:50.793Z,97167.14
2018-05-08T22:26:17.964Z,97169.11
2018-05-08T22:28:45.043Z,97177.12
2018-05-08T22:31:12.229Z,97174.55
2018-05-08T22:33:39.915Z,97175.30
2018-05-08T22:36:07.500Z,97182.97
2018-05-08T22:38:35.097Z,97182.27
2018-05-08T22:41:02.179Z,97179.13
2018-05-08T22:43:29.442Z,97189.85
2018-05-08T22:45:56.696Z,97183.42
2018-05-08T22:48:24.119Z,97184.92
2018-05-08T22:50:51.404Z,97187.95
2018-05-08T22:53:18.489Z,97182.19
2018-05-08T22:55:45.840Z,97190.02
2018-05-08T22:58:29.525Z,97187.84
2018-05-08T23:00:57.163Z,97178.77
2018-05-08T23:03:24.324Z,97177.66
2018-05-08T23:05:51.610Z,97183.84
2018-05-08T23:08:18.679Z,97182.75
2018-05-08T23:10:45.760Z,97177.65
2018-05-08T23:13:12.932Z,97173.88
2018-05-08T23:15:40.019Z,97168.38
2018-05-08T23:18:07.169Z,97168.11
2018-05-08T23:20:34.419Z,97167.05
2018-05-08T23:23:01.578Z,97174.05
2018-05-08T23:25:28.675Z,97170.52
2018-05-08T23:27:55.769Z,97173.95
2018-05-08T23:30:22.950Z,97166.80
2018-05-08T23:32:50.163Z,97167.78
2018-05-08T23:35:17.301Z,97169.45
2018-05-08T23:37:44.387Z,97172.89
2018-05-08T23:40:11.453Z,97167.19
2018-05-08T23:42:38.505Z,97165.50
2018-05-08T23:45:05.639Z,97165.89
2018-05-08T23:47:32.905Z,97162.36
2018-05-08T23:49:59.980Z,97163.08
2018-05-08T23:52:27.073Z,97164.49
2018-05-08T23:54:54.154Z,97162.12
2018-05-08T23:57:21.330Z,97162.23
2018-05-08T23:59:48.493Z,97158.74
